sensor_id;sensor_type;location;lat;lon;timestamp;pressure;altitude;pressure_sealevel;temperature
80537;BMP280;69867;47.074;15.404;2023-11-19T00:01:24;97971.53;;;4.19
80537;BMP280;69867;47.074;15.404;2023-11-19T00:03:50;97956.09;;;4.22
80537;BMP280;69867;47.074;15.404;2023-11-19T00:06:15;97946.66;;;4.21
80537;BMP280;69867;47.074;15.404;2023-11-19T00:08:40;97938.13;;;4.24
80537;BMP280;69867;47.074;15.404;2023-11-19T00:11:06;97951.00;;;4.27
80537;BMP280;69867;47.074;15.404;2023-11-19T00:13:31;97939.84;;;4.26
80537;BMP280;69867;47.074;15.404;2023-11-19T00:15:56;97942.38;;;4.22
80537;BMP280;69867;47.074;15.404;2023-11-19T00:18:22;97934.66;;;4.22
80537;BMP280;69867;47.074;15.404;2023-11-19T00:20:47;97940.72;;;4.27
80537;BMP280;69867;47.074;15.404;2023-11-19T00:23:12;97933.88;;;4.32
80537;BMP280;69867;47.074;15.404;2023-11-19T00:25:38;97937.31;;;4.29
80537;BMP280;69867;47.074;15.404;2023-11-19T00:28:03;97930.41;;;4.25
80537;BMP280;69867;47.074;15.404;2023-11-19T00:30:29;97926.13;;;4.26
80537;BMP280;69867;47.074;15.404;2023-11-19T00:32:54;97921.78;;;4.17
80537;BMP280;69867;47.074;15.404;2023-11-19T00:35:20;97928.66;;;4.18
80537;BMP280;69867;47.074;15.404;2023-11-19T00:37:45;97913.19;;;4.15
80537;BMP280;69867;47.074;15.404;2023-11-19T00:40:11;97932.88;;;4.11
80537;BMP280;69867;47.074;15.404;2023-11-19T00:42:36;97941.41;;;4.07
80537;BMP280;69867;47.074;15.404;2023-11-19T00:45:02;97939.69;;;4.06
80537;BMP280;69867;47.074;15.404;2023-11-19T00:47:27;97917.44;;;4.10
80537;BMP280;69867;47.074;15.404;2023-11-19T00:49:52;97909.75;;;4.13
80537;BMP280;69867;47.074;15.404;2023-11-19T00:52:18;97907.16;;;4.11
80537;BMP280;69867;47.074;15.404;2023-11-19T00:54:43;97910.63;;;4.15
80537;BMP280;69867;47.074;15.404;2023-11-19T00:57:09;97890.06;;;4.16
80537;BMP280;69867;47.074;15.404;2023-11-19T00:59:34;97895.19;;;4.13
80537;BMP280;69867;47.074;15.404;2023-11-19T01:02:00;97898.66;;;4.22
80537;BMP280;69867;47.074;15.404;2023-11-19T01:04:25;97890.06;;;4.20
80537;BMP280;69867;47.074;15.404;2023-11-19T01:06:51;97894.38;;;4.22
80537;BMP280;69867;47.074;15.404;2023-11-19T01:09:16;97906.34;;;4.18
80537;BMP280;69867;47.074;15.404;2023-11-19T01:11:41;97920.09;;;4.24
80537;BMP280;69867;47.074;15.404;2023-11-19T01:14:07;97917.56;;;4.27
80537;BMP280;69867;47.074;15.404;2023-11-19T01:16:32;97915.88;;;4.32
80537;BMP280;69867;47.074;15.404;2023-11-19T01:18:58;97895.31;;;4.35
80537;BMP280;69867;47.074;15.404;2023-11-19T01:21:23;97900.50;;;4.41
80537;BMP280;69867;47.074;15.404;2023-11-19T01:23:48;97885.06;;;4.44
80537;BMP280;69867;47.074;15.404;2023-11-19T01:26:14;97875.66;;;4.46
80537;BMP280;69867;47.074;15.404;2023-11-19T01:28:39;97873.09;;;4.47
80537;BMP280;69867;47.074;15.404;2023-11-19T01:31:05;97871.38;;;4.46
80537;BMP280;69867;47.074;15.404;2023-11-19T01:33:31;97866.22;;;4.48
80537;BMP280;69867;47.074;15.404;2023-11-19T01:35:56;97864.53;;;4.50
80537;BMP280;69867;47.074;15.404;2023-11-19T01:38:21;97860.25;;;4.52
80537;BMP280;69867;47.074;15.404;2023-11-19T01:40:47;97859.38;;;4.53
80537;BMP280;69867;47.074;15.404;2023-11-19T01:43:12;97852.53;;;4.57
80537;BMP280;69867;47.074;15.404;2023-11-19T01:45:55;97849.09;;;4.53
80537;BMP280;69867;47.074;15.404;2023-11-19T01:48:21;97845.63;;;4.48
80537;BMP280;69867;47.074;15.404;2023-11-19T01:50:46;97837.06;;;4.49
80537;BMP280;69867;47.074;15.404;2023-11-19T01:53:11;97835.34;;;4.48
80537;BMP280;69867;47.074;15.404;2023-11-19T01:55:37;97828.47;;;4.45
80537;BMP280;69867;47.074;15.404;2023-11-19T01:58:02;97835.34;;;4.48
80537;BMP280;69867;47.074;15.404;2023-11-19T02:00:28;97837.06;;;4.49
80537;BMP280;69867;47.074;15.404;2023-11-19T02:02:53;97829.31;;;4.40
80537;BMP280;69867;47.074;15.404;2023-11-19T02:05:18;97814.69;;;4.34
80537;BMP280;69867;47.074;15.404;2023-11-19T02:07:44;97811.28;;;4.37
80537;BMP280;69867;47.074;15.404;2023-11-19T02:10:10;97811.25;;;4.31
80537;BMP280;69867;47.074;15.404;2023-11-19T02:12:35;97804.38;;;4.30
80537;BMP280;69867;47.074;15.404;2023-11-19T02:15:02;97797.50;;;4.26
80537;BMP280;69867;47.074;15.404;2023-11-19T02:17:31;97794.94;;;4.27
80537;BMP280;69867;47.074;15.404;2023-11-19T02:19:56;97788.09;;;4.32
80537;BMP280;69867;47.074;15.404;2023-11-19T02:22:22;97784.63;;;4.21
80537;BMP280;69867;47.074;15.404;2023-11-19T02:24:50;97782.03;;;4.16
80537;BMP280;69867;47.074;15.404;2023-11-19T02:30:02;97768.31;;;4.17
80537;BMP280;69867;47.074;15.404;2023-11-19T02:32:27;97772.59;;;4.17
80537;BMP280;69867;47.074;15.404;2023-11-19T02:34:53;97766.59;;;4.15
80537;BMP280;69867;47.074;15.404;2023-11-19T02:37:18;97769.13;;;4.04
80537;BMP280;69867;47.074;15.404;2023-11-19T02:39:44;97774.22;;;3.98
80537;BMP280;69867;47.074;15.404;2023-11-19T02:42:09;97778.53;;;4.04
80537;BMP280;69867;47.074;15.404;2023-11-19T02:44:34;97771.63;;;3.92
80537;BMP280;69867;47.074;15.404;2023-11-19T02:46:59;97764.69;;;3.85
80537;BMP280;69867;47.074;15.404;2023-11-19T02:49:25;97754.38;;;3.82
80537;BMP280;69867;47.074;15.404;2023-11-19T02:51:50;97750.94;;;3.80
80537;BMP280;69867;47.074;15.404;2023-11-19T02:54:16;97748.31;;;3.72
80537;BMP280;69867;47.074;15.404;2023-11-19T02:56:44;97744.00;;;3.67
80537;BMP280;69867;47.074;15.404;2023-11-19T02:59:09;97738.84;;;3.65
80537;BMP280;69867;47.074;15.404;2023-11-19T03:01:35;97734.63;;;3.72
80537;BMP280;69867;47.074;15.404;2023-11-19T03:04:01;97730.38;;;3.80
80537;BMP280;69867;47.074;15.404;2023-11-19T03:06:26;97718.41;;;3.83
80537;BMP280;69867;47.074;15.404;2023-11-19T03:08:52;97729.56;;;3.85
80537;BMP280;69867;47.074;15.404;2023-11-19T03:11:17;97724.38;;;3.81
80537;BMP280;69867;47.074;15.404;2023-11-19T03:13:42;97725.25;;;3.81
80537;BMP280;69867;47.074;15.404;2023-11-19T03:16:08;97720.06;;;3.75
80537;BMP280;69867;47.074;15.404;2023-11-19T03:18:33;97715.75;;;3.68
80537;BMP280;69867;47.074;15.404;2023-11-19T03:20:59;97711.50;;;3.76
80537;BMP280;69867;47.074;15.404;2023-11-19T03:23:24;97705.50;;;3.74
80537;BMP280;69867;47.074;15.404;2023-11-19T03:25:50;97702.97;;;3.82
80537;BMP280;69867;47.074;15.404;2023-11-19T03:28:16;97709.84;;;3.83
80537;BMP280;69867;47.074;15.404;2023-11-19T03:30:41;97701.25;;;3.81
80537;BMP280;69867;47.074;15.404;2023-11-19T03:33:07;97687.53;;;3.80
80537;BMP280;69867;47.074;15.404;2023-11-19T03:35:32;97683.25;;;3.79
80537;BMP280;69867;47.074;15.404;2023-11-19T03:37:57;97683.28;;;3.82
80537;BMP280;69867;47.074;15.404;2023-11-19T03:40:23;97681.53;;;3.75
80537;BMP280;69867;47.074;15.404;2023-11-19T03:42:48;97672.09;;;3.76
80537;BMP280;69867;47.074;15.404;2023-11-19T03:45:13;97654.97;;;3.78
80537;BMP280;69867;47.074;15.404;2023-11-19T03:47:39;97659.25;;;3.77
80537;BMP280;69867;47.074;15.404;2023-11-19T03:50:05;97653.25;;;3.74
80537;BMP280;69867;47.074;15.404;2023-11-19T03:52:30;97654.94;;;3.72
80537;BMP280;69867;47.074;15.404;2023-11-19T03:54:56;97655.81;;;3.77
80537;BMP280;69867;47.074;15.404;2023-11-19T03:57:21;97654.13;;;3.79
80537;BMP280;69867;47.074;15.404;2023-11-19T03:59:47;97664.41;;;3.77
80537;BMP280;69867;47.074;15.404;2023-11-19T04:02:13;97650.69;;;3.75
80537;BMP280;69867;47.074;15.404;2023-11-19T04:04:38;97649.00;;;3.80
80537;BMP280;69867;47.074;15.404;2023-11-19T04:07:04;97635.25;;;3.75
80537;BMP280;69867;47.074;15.404;2023-11-19T04:09:30;97633.59;;;3.83
80537;BMP280;69867;47.074;15.404;2023-11-19T04:11:56;97632.72;;;3.80
80537;BMP280;69867;47.074;15.404;2023-11-19T04:14:22;97625.88;;;3.85
80537;BMP280;69867;47.074;15.404;2023-11-19T04:16:47;97624.16;;;3.82
80537;BMP280;69867;47.074;15.404;2023-11-19T04:19:12;97626.72;;;3.84
80537;BMP280;69867;47.074;15.404;2023-11-19T04:21:41;97624.16;;;3.84
80537;BMP280;69867;47.074;15.404;2023-11-19T04:24:07;97621.59;;;3.82
80537;BMP280;69867;47.074;15.404;2023-11-19T04:26:33;97613.88;;;3.84
80537;BMP280;69867;47.074;15.404;2023-11-19T04:28:58;97616.44;;;3.84
80537;BMP280;69867;47.074;15.404;2023-11-19T04:31:23;97617.31;;;3.86
80537;BMP280;69867;47.074;15.404;2023-11-19T04:33:49;97605.28;;;3.76
80537;BMP280;69867;47.074;15.404;2023-11-19T04:36:18;97617.28;;;3.77
80537;BMP280;69867;47.074;15.404;2023-11-19T04:38:43;97615.56;;;3.76
80537;BMP280;69867;47.074;15.404;2023-11-19T04:41:10;97619.84;;;3.78
80537;BMP280;69867;47.074;15.404;2023-11-19T04:43:35;97613.00;;;3.77
80537;BMP280;69867;47.074;15.404;2023-11-19T04:46:03;97613.84;;;3.78
80537;BMP280;69867;47.074;15.404;2023-11-19T04:48:29;97607.88;;;3.79
80537;BMP280;69867;47.074;15.404;2023-11-19T04:50:54;97608.72;;;3.78
80537;BMP280;69867;47.074;15.404;2023-11-19T04:53:19;97602.72;;;3.77
80537;BMP280;69867;47.074;15.404;2023-11-19T04:55:45;97599.28;;;3.77
80537;BMP280;69867;47.074;15.404;2023-11-19T04:58:10;97601.84;;;3.75
80537;BMP280;69867;47.074;15.404;2023-11-19T05:00:36;97596.72;;;3.74
80537;BMP280;69867;47.074;15.404;2023-11-19T05:03:01;97591.56;;;3.71
80537;BMP280;69867;47.074;15.404;2023-11-19T05:05:26;97583.00;;;3.70
80537;BMP280;69867;47.074;15.404;2023-11-19T05:07:52;97580.41;;;3.70
80537;BMP280;69867;47.074;15.404;2023-11-19T05:10:17;97582.13;;;3.65
80537;BMP280;69867;47.074;15.404;2023-11-19T05:12:42;97589.81;;;3.61
80537;BMP280;69867;47.074;15.404;2023-11-19T05:15:08;97590.66;;;3.60
80537;BMP280;69867;47.074;15.404;2023-11-19T05:17:33;97578.63;;;3.51
80537;BMP280;69867;47.074;15.404;2023-11-19T05:19:59;97569.19;;;3.45
80537;BMP280;69867;47.074;15.404;2023-11-19T05:22:24;97572.59;;;3.41
80537;BMP280;69867;47.074;15.404;2023-11-19T05:24:50;97557.19;;;3.44
80537;BMP280;69867;47.074;15.404;2023-11-19T05:27:15;97556.34;;;3.44
80537;BMP280;69867;47.074;15.404;2023-11-19T05:29:40;97555.47;;;3.40
80537;BMP280;69867;47.074;15.404;2023-11-19T05:32:06;97552.88;;;3.34
80537;BMP280;69867;47.074;15.404;2023-11-19T05:34:31;97551.16;;;3.36
80537;BMP280;69867;47.074;15.404;2023-11-19T05:36:56;97558.84;;;3.30
80537;BMP280;69867;47.074;15.404;2023-11-19T05:39:22;97559.69;;;3.26
80537;BMP280;69867;47.074;15.404;2023-11-19T05:41:47;97568.22;;;3.25
80537;BMP280;69867;47.074;15.404;2023-11-19T05:44:12;97558.81;;;3.27
80537;BMP280;69867;47.074;15.404;2023-11-19T05:46:38;97566.53;;;3.29
80537;BMP280;69867;47.074;15.404;2023-11-19T05:49:03;97558.88;;;3.35
80537;BMP280;69867;47.074;15.404;2023-11-19T05:51:29;97558.03;;;3.40
80537;BMP280;69867;47.074;15.404;2023-11-19T05:53:54;97543.50;;;3.45
80537;BMP280;69867;47.074;15.404;2023-11-19T05:56:19;97537.50;;;3.45
80537;BMP280;69867;47.074;15.404;2023-11-19T05:58:45;97528.97;;;3.50
80537;BMP280;69867;47.074;15.404;2023-11-19T06:01:10;97540.09;;;3.49
80537;BMP280;69867;47.074;15.404;2023-11-19T06:03:35;97527.25;;;3.49
80537;BMP280;69867;47.074;15.404;2023-11-19T06:06:01;97525.56;;;3.56
80537;BMP280;69867;47.074;15.404;2023-11-19T06:08:26;97527.28;;;3.63
80537;BMP280;69867;47.074;15.404;2023-11-19T06:10:52;97523.88;;;3.67
80537;BMP280;69867;47.074;15.404;2023-11-19T06:13:17;97523.00;;;3.64
80537;BMP280;69867;47.074;15.404;2023-11-19T06:15:42;97503.31;;;3.69
80537;BMP280;69867;47.074;15.404;2023-11-19T06:18:08;97505.03;;;3.70
80537;BMP280;69867;47.074;15.404;2023-11-19T06:20:34;97513.59;;;3.72
80537;BMP280;69867;47.074;15.404;2023-11-19T06:23:00;97532.44;;;3.68
80537;BMP280;69867;47.074;15.404;2023-11-19T06:25:25;97523.00;;;3.61
80537;BMP280;69867;47.074;15.404;2023-11-19T06:27:52;97523.84;;;3.60
80537;BMP280;69867;47.074;15.404;2023-11-19T06:30:18;97526.44;;;3.61
80537;BMP280;69867;47.074;15.404;2023-11-19T06:32:43;97521.28;;;3.63
80537;BMP280;69867;47.074;15.404;2023-11-19T06:35:08;97521.31;;;3.75
80537;BMP280;69867;47.074;15.404;2023-11-19T06:37:34;97512.78;;;3.79
80537;BMP280;69867;47.074;15.404;2023-11-19T06:39:59;97512.78;;;3.79
80537;BMP280;69867;47.074;15.404;2023-11-19T06:42:25;97511.91;;;3.78
80537;BMP280;69867;47.074;15.404;2023-11-19T06:44:50;97516.19;;;3.81
80537;BMP280;69867;47.074;15.404;2023-11-19T06:47:15;97512.78;;;3.82
80537;BMP280;69867;47.074;15.404;2023-11-19T06:49:43;97513.69;;;3.93
80537;BMP280;69867;47.074;15.404;2023-11-19T06:52:09;97502.50;;;3.88
80537;BMP280;69867;47.074;15.404;2023-11-19T06:54:34;97506.81;;;3.94
80537;BMP280;69867;47.074;15.404;2023-11-19T06:56:59;97514.53;;;3.97
80537;BMP280;69867;47.074;15.404;2023-11-19T06:59:25;97511.97;;;4.04
80537;BMP280;69867;47.074;15.404;2023-11-19T07:01:50;97519.69;;;4.07
80537;BMP280;69867;47.074;15.404;2023-11-19T07:04:15;97520.56;;;4.08
80537;BMP280;69867;47.074;15.404;2023-11-19T07:06:41;97517.13;;;4.07
80537;BMP280;69867;47.074;15.404;2023-11-19T07:09:07;97518.84;;;4.16
80537;BMP280;69867;47.074;15.404;2023-11-19T07:11:32;97510.28;;;4.20
80537;BMP280;69867;47.074;15.404;2023-11-19T07:13:57;97520.56;;;4.29
80537;BMP280;69867;47.074;15.404;2023-11-19T07:16:23;97528.28;;;4.34
80537;BMP280;69867;47.074;15.404;2023-11-19T07:18:48;97521.44;;;4.40
80537;BMP280;69867;47.074;15.404;2023-11-19T07:21:13;97517.13;;;4.50
80537;BMP280;69867;47.074;15.404;2023-11-19T07:23:39;97521.44;;;4.54
80537;BMP280;69867;47.074;15.404;2023-11-19T07:26:05;97511.97;;;4.61
80537;BMP280;69867;47.074;15.404;2023-11-19T07:28:31;97512.84;;;4.61
80537;BMP280;69867;47.074;15.404;2023-11-19T07:30:56;97503.41;;;4.68
80537;BMP280;69867;47.074;15.404;2023-11-19T07:33:21;97485.38;;;4.71
80537;BMP280;69867;47.074;15.404;2023-11-19T07:35:47;97478.50;;;4.76
80537;BMP280;69867;47.074;15.404;2023-11-19T07:38:12;97448.47;;;4.78
80537;BMP280;69867;47.074;15.404;2023-11-19T07:40:37;97413.28;;;4.77
80537;BMP280;69867;47.074;15.404;2023-11-19T07:43:03;97432.16;;;4.80
80537;BMP280;69867;47.074;15.404;2023-11-19T07:45:28;97466.44;;;4.89
80537;BMP280;69867;47.074;15.404;2023-11-19T07:47:53;97480.16;;;4.94
80537;BMP280;69867;47.074;15.404;2023-11-19T07:50:19;97466.44;;;4.89
80537;BMP280;69867;47.074;15.404;2023-11-19T07:52:44;97487.94;;;4.80
80537;BMP280;69867;47.074;15.404;2023-11-19T07:55:09;97494.78;;;4.86
80537;BMP280;69867;47.074;15.404;2023-11-19T07:57:35;97466.44;;;4.89
80537;BMP280;69867;47.074;15.404;2023-11-19T08:00:00;97463.88;;;4.93
80537;BMP280;69867;47.074;15.404;2023-11-19T08:02:25;97476.78;;;4.79
80537;BMP280;69867;47.074;15.404;2023-11-19T08:04:51;97480.19;;;4.81
80537;BMP280;69867;47.074;15.404;2023-11-19T08:07:16;97498.22;;;4.83
80537;BMP280;69867;47.074;15.404;2023-11-19T08:09:41;97499.94;;;4.86
80537;BMP280;69867;47.074;15.404;2023-11-19T08:12:07;97494.78;;;4.81
80537;BMP280;69867;47.074;15.404;2023-11-19T08:14:32;97500.81;;;4.81
80537;BMP280;69867;47.074;15.404;2023-11-19T08:16:57;97490.50;;;4.85
80537;BMP280;69867;47.074;15.404;2023-11-19T08:19:23;97497.34;;;4.86
80537;BMP280;69867;47.074;15.404;2023-11-19T08:21:48;97500.78;;;4.83
80537;BMP280;69867;47.074;15.404;2023-11-19T08:24:13;97493.03;;;4.97
80537;BMP280;69867;47.074;15.404;2023-11-19T08:26:39;97477.53;;;5.10
80537;BMP280;69867;47.074;15.404;2023-11-19T08:29:05;97470.66;;;5.22
80537;BMP280;69867;47.074;15.404;2023-11-19T08:31:30;97468.06;;;5.29
80537;BMP280;69867;47.074;15.404;2023-11-19T08:33:55;97454.28;;;5.33
80537;BMP280;69867;47.074;15.404;2023-11-19T08:36:21;97454.28;;;5.35
80537;BMP280;69867;47.074;15.404;2023-11-19T08:38:46;97459.44;;;5.38
80537;BMP280;69867;47.074;15.404;2023-11-19T08:41:12;97447.38;;;5.41
80537;BMP280;69867;47.074;15.404;2023-11-19T08:43:37;97454.25;;;5.39
80537;BMP280;69867;47.074;15.404;2023-11-19T08:46:03;97449.97;;;5.37
80537;BMP280;69867;47.074;15.404;2023-11-19T08:48:29;97444.81;;;5.38
80537;BMP280;69867;47.074;15.404;2023-11-19T08:50:54;97444.81;;;5.41
80537;BMP280;69867;47.074;15.404;2023-11-19T08:53:20;97445.66;;;5.43
80537;BMP280;69867;47.074;15.404;2023-11-19T08:55:45;97446.53;;;5.39
80537;BMP280;69867;47.074;15.404;2023-11-19T08:58:11;97437.03;;;5.47
80537;BMP280;69867;47.074;15.404;2023-11-19T09:00:36;97425.81;;;5.55
80537;BMP280;69867;47.074;15.404;2023-11-19T09:03:02;97418.06;;;5.62
80537;BMP280;69867;47.074;15.404;2023-11-19T09:05:27;97411.13;;;5.70
80537;BMP280;69867;47.074;15.404;2023-11-19T09:07:53;97417.91;;;5.81
80537;BMP280;69867;47.074;15.404;2023-11-19T09:10:18;97415.28;;;5.93
80537;BMP280;69867;47.074;15.404;2023-11-19T09:12:43;97421.97;;;6.17
80537;BMP280;69867;47.074;15.404;2023-11-19T09:15:09;97423.53;;;6.33
80537;BMP280;69867;47.074;15.404;2023-11-19T09:17:34;97427.81;;;6.34
80537;BMP280;69867;47.074;15.404;2023-11-19T09:20:00;97423.47;;;6.40
80537;BMP280;69867;47.074;15.404;2023-11-19T09:22:25;97405.28;;;6.54
80537;BMP280;69867;47.074;15.404;2023-11-19T09:24:50;97400.88;;;6.64
80537;BMP280;69867;47.074;15.404;2023-11-19T09:27:15;97396.56;;;6.66
80537;BMP280;69867;47.074;15.404;2023-11-19T09:29:41;97390.53;;;6.67
80537;BMP280;69867;47.074;15.404;2023-11-19T09:32:06;97390.53;;;6.67
80537;BMP280;69867;47.074;15.404;2023-11-19T09:34:32;97390.53;;;6.65
80537;BMP280;69867;47.074;15.404;2023-11-19T09:36:57;97392.22;;;6.69
80537;BMP280;69867;47.074;15.404;2023-11-19T09:39:22;97396.59;;;6.63
80537;BMP280;69867;47.074;15.404;2023-11-19T09:41:48;97388.06;;;6.55
80537;BMP280;69867;47.074;15.404;2023-11-19T09:44:13;97383.63;;;6.69
80537;BMP280;69867;47.074;15.404;2023-11-19T09:46:41;97383.56;;;6.73
80537;BMP280;69867;47.074;15.404;2023-11-19T09:49:08;97356.91;;;6.71
80537;BMP280;69867;47.074;15.404;2023-11-19T09:51:33;97350.84;;;6.76
80537;BMP280;69867;47.074;15.404;2023-11-19T09:53:59;97364.59;;;6.76
80537;BMP280;69867;47.074;15.404;2023-11-19T09:56:25;97361.09;;;6.80
80537;BMP280;69867;47.074;15.404;2023-11-19T09:58:51;97363.72;;;6.79
80537;BMP280;69867;47.074;15.404;2023-11-19T10:01:16;97369.66;;;6.85
80537;BMP280;69867;47.074;15.404;2023-11-19T10:03:42;97364.34;;;6.97
80537;BMP280;69867;47.074;15.404;2023-11-19T10:06:10;97361.72;;;7.00
80537;BMP280;69867;47.074;15.404;2023-11-19T10:08:38;97349.69;;;6.99
80537;BMP280;69867;47.074;15.404;2023-11-19T10:11:04;97334.13;;;7.04
80537;BMP280;69867;47.074;15.404;2023-11-19T10:13:30;97327.19;;;7.06
80537;BMP280;69867;47.074;15.404;2023-11-19T10:15:56;97320.31;;;7.05
80537;BMP280;69867;47.074;15.404;2023-11-19T10:18:26;97323.69;;;7.10
80537;BMP280;69867;47.074;15.404;2023-11-19T10:20:51;97316.72;;;7.15
80537;BMP280;69867;47.074;15.404;2023-11-19T10:23:17;97313.19;;;7.22
80537;BMP280;69867;47.074;15.404;2023-11-19T10:25:42;97309.72;;;7.23
80537;BMP280;69867;47.074;15.404;2023-11-19T10:28:08;97302.81;;;7.25
80537;BMP280;69867;47.074;15.404;2023-11-19T10:30:33;97295.00;;;7.28
80537;BMP280;69867;47.074;15.404;2023-11-19T10:33:06;97295.78;;;7.33
80537;BMP280;69867;47.074;15.404;2023-11-19T10:35:32;97286.31;;;7.32
80537;BMP280;69867;47.074;15.404;2023-11-19T10:38:13;97282.88;;;7.32
80537;BMP280;69867;47.074;15.404;2023-11-19T10:40:38;97268.19;;;7.35
80537;BMP280;69867;47.074;15.404;2023-11-19T10:43:04;97268.97;;;7.41
80537;BMP280;69867;47.074;15.404;2023-11-19T10:45:29;97271.56;;;7.41
80537;BMP280;69867;47.074;15.404;2023-11-19T10:47:55;97258.56;;;7.45
80537;BMP280;69867;47.074;15.404;2023-11-19T10:50:21;97255.03;;;7.49
80537;BMP280;69867;47.074;15.404;2023-11-19T10:52:48;97259.31;;;7.52
80537;BMP280;69867;47.074;15.404;2023-11-19T10:55:15;97256.69;;;7.55
80537;BMP280;69867;47.074;15.404;2023-11-19T10:57:46;97252.28;;;7.60
80537;BMP280;69867;47.074;15.404;2023-11-19T11:00:17;97257.38;;;7.64
80537;BMP280;69867;47.074;15.404;2023-11-19T11:02:45;97253.81;;;7.70
80537;BMP280;69867;47.074;15.404;2023-11-19T11:05:14;97251.16;;;7.75
80537;BMP280;69867;47.074;15.404;2023-11-19T11:07:40;97245.06;;;7.77
80537;BMP280;69867;47.074;15.404;2023-11-19T11:10:06;97231.31;;;7.75
80537;BMP280;69867;47.074;15.404;2023-11-19T11:12:36;97244.22;;;7.77
80537;BMP280;69867;47.074;15.404;2023-11-19T11:15:03;97246.75;;;7.80
80537;BMP280;69867;47.074;15.404;2023-11-19T11:17:31;97248.47;;;7.82
80537;BMP280;69867;47.074;15.404;2023-11-19T11:19:58;97255.34;;;7.83
80537;BMP280;69867;47.074;15.404;2023-11-19T11:22:24;97260.53;;;7.83
80537;BMP280;69867;47.074;15.404;2023-11-19T11:25:23;97246.66;;;7.87
80537;BMP280;69867;47.074;15.404;2023-11-19T11:36:19;97216.91;;;8.10
80537;BMP280;69867;47.074;15.404;2023-11-19T11:38:47;97212.50;;;8.15
80537;BMP280;69867;47.074;15.404;2023-11-19T11:41:24;97204.66;;;8.18
80537;BMP280;69867;47.074;15.404;2023-11-19T11:43:50;97190.75;;;8.23
80537;BMP280;69867;47.074;15.404;2023-11-19T11:48:59;97197.53;;;8.29
80537;BMP280;69867;47.074;15.404;2023-11-19T11:54:10;97188.81;;;8.36
80537;BMP280;69867;47.074;15.404;2023-11-19T11:56:39;97184.47;;;8.37
80537;BMP280;69867;47.074;15.404;2023-11-19T11:59:23;97180.91;;;8.42
80537;BMP280;69867;47.074;15.404;2023-11-19T12:01:58;97178.25;;;8.45
80537;BMP280;69867;47.074;15.404;2023-11-19T12:04:26;97168.69;;;8.49
80537;BMP280;69867;47.074;15.404;2023-11-19T12:07:06;97173.78;;;8.52
80537;BMP280;69867;47.074;15.404;2023-11-19T12:09:32;97163.28;;;8.58
80537;BMP280;69867;47.074;15.404;2023-11-19T12:12:21;97167.47;;;8.63
80537;BMP280;69867;47.074;15.404;2023-11-19T12:20:07;97154.28;;;8.74
80537;BMP280;69867;47.074;15.404;2023-11-19T12:22:33;97157.63;;;8.79
80537;BMP280;69867;47.074;15.404;2023-11-19T12:24:59;97153.22;;;8.83
80537;BMP280;69867;47.074;15.404;2023-11-19T12:27:24;97154.00;;;8.86
80537;BMP280;69867;47.074;15.404;2023-11-19T12:29:50;97148.78;;;8.88
80537;BMP280;69867;47.074;15.404;2023-11-19T12:32:15;97143.38;;;8.97
80537;BMP280;69867;47.074;15.404;2023-11-19T12:34:40;97149.38;;;8.99
80537;BMP280;69867;47.074;15.404;2023-11-19T12:37:06;97151.00;;;9.03
80537;BMP280;69867;47.074;15.404;2023-11-19T12:39:31;97148.31;;;9.08
80537;BMP280;69867;47.074;15.404;2023-11-19T12:41:57;97145.66;;;9.12
80537;BMP280;69867;47.074;15.404;2023-11-19T12:44:23;97147.19;;;9.19
80537;BMP280;69867;47.074;15.404;2023-11-19T12:47:05;97148.03;;;9.20
80537;BMP280;69867;47.074;15.404;2023-11-19T12:49:30;97145.41;;;9.21
80537;BMP280;69867;47.074;15.404;2023-11-19T12:51:56;97145.25;;;9.27
80537;BMP280;69867;47.074;15.404;2023-11-19T12:54:37;97135.69;;;9.29
80537;BMP280;69867;47.074;15.404;2023-11-19T12:57:04;97150.38;;;9.30
80537;BMP280;69867;47.074;15.404;2023-11-19T12:59:29;97148.63;;;9.31
80537;BMP280;69867;47.074;15.404;2023-11-19T13:01:58;97143.41;;;9.33
80537;BMP280;69867;47.074;15.404;2023-11-19T13:04:27;97140.81;;;9.33
80537;BMP280;69867;47.074;15.404;2023-11-19T13:06:53;97144.25;;;9.33
80537;BMP280;69867;47.074;15.404;2023-11-19T13:09:24;97142.47;;;9.35
80537;BMP280;69867;47.074;15.404;2023-11-19T13:11:50;97144.19;;;9.36
80537;BMP280;69867;47.074;15.404;2023-11-19T13:14:15;97138.06;;;9.39
80537;BMP280;69867;47.074;15.404;2023-11-19T13:16:42;97139.84;;;9.37
80537;BMP280;69867;47.074;15.404;2023-11-19T13:19:08;97134.56;;;9.40
80537;BMP280;69867;47.074;15.404;2023-11-19T13:21:33;97136.34;;;9.38
80537;BMP280;69867;47.074;15.404;2023-11-19T13:23:58;97140.63;;;9.40
80537;BMP280;69867;47.074;15.404;2023-11-19T13:26:24;97139.69;;;9.43
80537;BMP280;69867;47.074;15.404;2023-11-19T13:28:49;97127.53;;;9.45
80537;BMP280;69867;47.074;15.404;2023-11-19T13:31:15;97130.09;;;9.46
80537;BMP280;69867;47.074;15.404;2023-11-19T13:33:41;97131.81;;;9.46
80537;BMP280;69867;47.074;15.404;2023-11-19T13:36:06;97130.19;;;9.42
80537;BMP280;69867;47.074;15.404;2023-11-19T13:38:33;97128.47;;;9.42
80537;BMP280;69867;47.074;15.404;2023-11-19T13:40:58;97139.63;;;9.44
80537;BMP280;69867;47.074;15.404;2023-11-19T13:43:24;97144.03;;;9.42
80537;BMP280;69867;47.074;15.404;2023-11-19T13:45:49;97150.13;;;9.40
80537;BMP280;69867;47.074;15.404;2023-11-19T13:48:14;97154.63;;;9.33
80537;BMP280;69867;47.074;15.404;2023-11-19T13:50:40;97159.78;;;9.35
80537;BMP280;69867;47.074;15.404;2023-11-19T13:53:05;97140.78;;;9.34
80537;BMP280;69867;47.074;15.404;2023-11-19T13:55:30;97132.06;;;9.37
80537;BMP280;69867;47.074;15.404;2023-11-19T13:57:56;97139.84;;;9.37
80537;BMP280;69867;47.074;15.404;2023-11-19T14:00:21;97136.47;;;9.33
80537;BMP280;69867;47.074;15.404;2023-11-19T14:02:46;97134.72;;;9.34
80537;BMP280;69867;47.074;15.404;2023-11-19T14:05:12;97135.53;;;9.36
80537;BMP280;69867;47.074;15.404;2023-11-19T14:07:41;97139.06;;;9.33
80537;BMP280;69867;47.074;15.404;2023-11-19T14:10:08;97141.75;;;9.30
80537;BMP280;69867;47.074;15.404;2023-11-19T14:12:33;97147.84;;;9.27
80537;BMP280;69867;47.074;15.404;2023-11-19T14:14:59;97147.03;;;9.25
80537;BMP280;69867;47.074;15.404;2023-11-19T14:17:24;97145.38;;;9.23
80537;BMP280;69867;47.074;15.404;2023-11-19T14:19:49;97143.88;;;9.14
80537;BMP280;69867;47.074;15.404;2023-11-19T14:22:15;97160.34;;;9.12
80537;BMP280;69867;47.074;15.404;2023-11-19T14:24:40;97151.63;;;9.14